sensor_id;sensor_type;location;lat;lon;timestamp;temperature;humidity
25248;DHT22;13191;47.472;11.214;2023-08-21T00:00:16;19.50;99.90
25248;DHT22;13191;47.472;11.214;2023-08-21T00:02:42;19.50;99.90
25248;DHT22;13191;47.472;11.214;2023-08-21T00:05:07;19.40;99.90
25248;DHT22;13191;47.472;11.214;2023-08-21T00:07:34;19.40;99.90
25248;DHT22;13191;47.472;11.214;2023-08-21T00:10:00;19.30;99.90
25248;DHT22;13191;47.472;11.214;2023-08-21T00:12:25;19.30;99.90
25248;DHT22;13191;47.472;11.214;2023-08-21T00:14:51;19.30;99.90
25248;DHT22;13191;47.472;11.214;2023-08-21T00:17:16;19.30;99.90
25248;DHT22;13191;47.472;11.214;2023-08-21T00:19:42;19.20;99.90
25248;DHT22;13191;47.472;11.214;2023-08-21T00:22:07;19.20;99.90
25248;DHT22;13191;47.472;11.214;2023-08-21T00:24:33;19.20;99.90
25248;DHT22;13191;47.472;11.214;2023-08-21T00:26:58;19.20;99.90
25248;DHT22;13191;47.472;11.214;2023-08-21T00:29:24;19.20;99.90
25248;DHT22;13191;47.472;11.214;2023-08-21T00:31:49;19.10;99.90
25248;DHT22;13191;47.472;11.214;2023-08-21T00:34:15;19.10;99.90
25248;DHT22;13191;47.472;11.214;2023-08-21T00:36:40;19.00;99.90
25248;DHT22;13191;47.472;11.214;2023-08-21T00:39:06;18.90;99.90
25248;DHT22;13191;47.472;11.214;2023-08-21T00:41:32;18.90;99.90
25248;DHT22;13191;47.472;11.214;2023-08-21T00:43:59;18.90;99.90
25248;DHT22;13191;47.472;11.214;2023-08-21T00:46:25;18.90;99.90
25248;DHT22;13191;47.472;11.214;2023-08-21T00:48:50;18.90;99.90
25248;DHT22;13191;47.472;11.214;2023-08-21T00:51:16;18.90;99.90
25248;DHT22;13191;47.472;11.214;2023-08-21T00:53:42;18.90;99.90
25248;DHT22;13191;47.472;11.214;2023-08-21T00:56:09;18.80;99.90
25248;DHT22;13191;47.472;11.214;2023-08-21T00:58:34;18.80;99.90
25248;DHT22;13191;47.472;11.214;2023-08-21T01:01:00;18.80;99.90
25248;DHT22;13191;47.472;11.214;2023-08-21T01:03:26;18.80;99.90
25248;DHT22;13191;47.472;11.214;2023-08-21T01:05:52;18.70;99.90
25248;DHT22;13191;47.472;11.214;2023-08-21T01:08:53;18.70;99.90
25248;DHT22;13191;47.472;11.214;2023-08-21T01:11:45;18.60;99.90
25248;DHT22;13191;47.472;11.214;2023-08-21T01:14:28;18.60;99.90
25248;DHT22;13191;47.472;11.214;2023-08-21T01:17:03;18.50;99.90
25248;DHT22;13191;47.472;11.214;2023-08-21T01:19:40;18.50;99.90
25248;DHT22;13191;47.472;11.214;2023-08-21T01:22:06;18.40;99.90
25248;DHT22;13191;47.472;11.214;2023-08-21T01:24:32;18.50;99.90
25248;DHT22;13191;47.472;11.214;2023-08-21T01:26:58;18.50;99.90
25248;DHT22;13191;47.472;11.214;2023-08-21T01:29:24;18.50;99.90
25248;DHT22;13191;47.472;11.214;2023-08-21T01:32:12;18.40;99.90
25248;DHT22;13191;47.472;11.214;2023-08-21T01:34:40;18.40;99.90
25248;DHT22;13191;47.472;11.214;2023-08-21T01:37:07;18.40;99.90
25248;DHT22;13191;47.472;11.214;2023-08-21T01:39:33;18.30;99.90
25248;DHT22;13191;47.472;11.214;2023-08-21T01:41:59;18.40;99.90
25248;DHT22;13191;47.472;11.214;2023-08-21T01:44:25;18.30;99.90
25248;DHT22;13191;47.472;11.214;2023-08-21T01:46:52;18.30;99.90
25248;DHT22;13191;47.472;11.214;2023-08-21T01:49:18;18.30;99.90
25248;DHT22;13191;47.472;11.214;2023-08-21T01:51:44;18.30;99.90
25248;DHT22;13191;47.472;11.214;2023-08-21T01:54:10;18.30;99.90
25248;DHT22;13191;47.472;11.214;2023-08-21T01:56:35;18.30;99.90
25248;DHT22;13191;47.472;11.214;2023-08-21T01:59:02;18.30;99.90
25248;DHT22;13191;47.472;11.214;2023-08-21T02:01:27;18.30;99.90
25248;DHT22;13191;47.472;11.214;2023-08-21T02:03:53;18.30;99.90
25248;DHT22;13191;47.472;11.214;2023-08-21T02:06:18;18.20;99.90
25248;DHT22;13191;47.472;11.214;2023-08-21T02:08:44;18.20;99.90
25248;DHT22;13191;47.472;11.214;2023-08-21T02:11:09;18.20;99.90
25248;DHT22;13191;47.472;11.214;2023-08-21T02:13:35;18.10;99.90
25248;DHT22;13191;47.472;11.214;2023-08-21T02:16:01;18.10;99.90
25248;DHT22;13191;47.472;11.214;2023-08-21T02:18:26;18.10;99.90
25248;DHT22;13191;47.472;11.214;2023-08-21T02:20:52;18.10;99.90
25248;DHT22;13191;47.472;11.214;2023-08-21T02:23:17;18.00;99.90
25248;DHT22;13191;47.472;11.214;2023-08-21T02:25:43;18.00;99.90
25248;DHT22;13191;47.472;11.214;2023-08-21T02:28:09;18.00;99.90
25248;DHT22;13191;47.472;11.214;2023-08-21T02:30:34;18.00;99.90
25248;DHT22;13191;47.472;11.214;2023-08-21T02:33:00;18.00;99.90
25248;DHT22;13191;47.472;11.214;2023-08-21T02:35:25;18.00;99.90
25248;DHT22;13191;47.472;11.214;2023-08-21T02:37:51;18.00;99.90
25248;DHT22;13191;47.472;11.214;2023-08-21T02:40:16;18.00;99.90
25248;DHT22;13191;47.472;11.214;2023-08-21T02:42:42;18.00;99.90
25248;DHT22;13191;47.472;11.214;2023-08-21T02:45:08;17.90;99.90
25248;DHT22;13191;47.472;11.214;2023-08-21T02:47:38;17.90;99.90
25248;DHT22;13191;47.472;11.214;2023-08-21T02:50:08;17.80;99.90
25248;DHT22;13191;47.472;11.214;2023-08-21T02:52:34;17.80;99.90
25248;DHT22;13191;47.472;11.214;2023-08-21T02:55:01;17.90;99.90
25248;DHT22;13191;47.472;11.214;2023-08-21T02:57:27;17.90;99.90
25248;DHT22;13191;47.472;11.214;2023-08-21T02:59:54;17.90;99.90
25248;DHT22;13191;47.472;11.214;2023-08-21T03:02:19;17.80;99.90
25248;DHT22;13191;47.472;11.214;2023-08-21T03:04:45;17.80;99.90
25248;DHT22;13191;47.472;11.214;2023-08-21T03:07:11;17.80;99.90
25248;DHT22;13191;47.472;11.214;2023-08-21T03:09:37;17.80;99.90
25248;DHT22;13191;47.472;11.214;2023-08-21T03:12:03;17.70;99.90
25248;DHT22;13191;47.472;11.214;2023-08-21T03:14:29;17.70;99.90
25248;DHT22;13191;47.472;11.214;2023-08-21T03:16:55;17.70;99.90
25248;DHT22;13191;47.472;11.214;2023-08-21T03:19:20;17.70;99.90
25248;DHT22;13191;47.472;11.214;2023-08-21T03:21:46;17.70;99.90
25248;DHT22;13191;47.472;11.214;2023-08-21T03:24:11;17.70;99.90
25248;DHT22;13191;47.472;11.214;2023-08-21T03:26:37;17.70;99.90
25248;DHT22;13191;47.472;11.214;2023-08-21T03:29:03;17.70;99.90
25248;DHT22;13191;47.472;11.214;2023-08-21T03:31:29;17.70;99.90
25248;DHT22;13191;47.472;11.214;2023-08-21T03:33:55;17.60;99.90
25248;DHT22;13191;47.472;11.214;2023-08-21T03:36:20;17.60;99.90
25248;DHT22;13191;47.472;11.214;2023-08-21T03:38:46;17.60;99.90
25248;DHT22;13191;47.472;11.214;2023-08-21T03:41:12;17.60;99.90
25248;DHT22;13191;47.472;11.214;2023-08-21T03:43:37;17.50;99.90
25248;DHT22;13191;47.472;11.214;2023-08-21T03:46:03;17.50;99.90
25248;DHT22;13191;47.472;11.214;2023-08-21T03:48:29;17.50;99.90
25248;DHT22;13191;47.472;11.214;2023-08-21T03:50:54;17.50;99.90
25248;DHT22;13191;47.472;11.214;2023-08-21T03:53:20;17.50;99.90
25248;DHT22;13191;47.472;11.214;2023-08-21T03:55:46;17.50;99.90
25248;DHT22;13191;47.472;11.214;2023-08-21T03:58:13;17.60;99.90
25248;DHT22;13191;47.472;11.214;2023-08-21T04:00:38;17.50;99.90
25248;DHT22;13191;47.472;11.214;2023-08-21T04:03:04;17.50;99.90
25248;DHT22;13191;47.472;11.214;2023-08-21T04:05:30;17.50;99.90
25248;DHT22;13191;47.472;11.214;2023-08-21T04:07:55;17.50;99.90
25248;DHT22;13191;47.472;11.214;2023-08-21T04:10:21;17.50;99.90
25248;DHT22;13191;47.472;11.214;2023-08-21T04:12:46;17.50;99.90
25248;DHT22;13191;47.472;11.214;2023-08-21T04:15:12;17.50;99.90
25248;DHT22;13191;47.472;11.214;2023-08-21T04:17:37;17.50;99.90
25248;DHT22;13191;47.472;11.214;2023-08-21T04:20:03;17.50;99.90
25248;DHT22;13191;47.472;11.214;2023-08-21T04:22:29;17.60;99.90
25248;DHT22;13191;47.472;11.214;2023-08-21T04:24:54;17.60;99.90
25248;DHT22;13191;47.472;11.214;2023-08-21T04:27:20;17.50;99.90
25248;DHT22;13191;47.472;11.214;2023-08-21T04:29:45;17.60;99.90
25248;DHT22;13191;47.472;11.214;2023-08-21T04:32:11;17.60;99.90
25248;DHT22;13191;47.472;11.214;2023-08-21T04:34:37;17.50;99.90
25248;DHT22;13191;47.472;11.214;2023-08-21T04:37:03;17.50;99.90
25248;DHT22;13191;47.472;11.214;2023-08-21T04:39:30;17.60;99.90
25248;DHT22;13191;47.472;11.214;2023-08-21T04:41:56;17.60;99.90
25248;DHT22;13191;47.472;11.214;2023-08-21T04:44:21;17.50;99.90
25248;DHT22;13191;47.472;11.214;2023-08-21T04:46:48;17.60;99.90
25248;DHT22;13191;47.472;11.214;2023-08-21T04:49:15;17.60;99.90
25248;DHT22;13191;47.472;11.214;2023-08-21T04:51:41;17.60;99.90
25248;DHT22;13191;47.472;11.214;2023-08-21T04:54:06;17.50;99.90
25248;DHT22;13191;47.472;11.214;2023-08-21T04:56:32;17.50;99.90
25248;DHT22;13191;47.472;11.214;2023-08-21T04:58:58;17.50;99.90
25248;DHT22;13191;47.472;11.214;2023-08-21T05:01:23;17.40;99.90
25248;DHT22;13191;47.472;11.214;2023-08-21T05:03:50;17.40;99.90
25248;DHT22;13191;47.472;11.214;2023-08-21T05:06:16;17.50;99.90
25248;DHT22;13191;47.472;11.214;2023-08-21T05:08:41;17.50;99.90
25248;DHT22;13191;47.472;11.214;2023-08-21T05:11:07;17.40;99.90
25248;DHT22;13191;47.472;11.214;2023-08-21T05:13:33;17.50;99.90
25248;DHT22;13191;47.472;11.214;2023-08-21T05:15:59;17.40;99.90
25248;DHT22;13191;47.472;11.214;2023-08-21T05:18:25;17.40;99.90
25248;DHT22;13191;47.472;11.214;2023-08-21T05:20:53;17.40;99.90
25248;DHT22;13191;47.472;11.214;2023-08-21T05:23:19;17.50;99.90
25248;DHT22;13191;47.472;11.214;2023-08-21T05:25:45;17.50;99.90
25248;DHT22;13191;47.472;11.214;2023-08-21T05:28:11;17.50;99.90
25248;DHT22;13191;47.472;11.214;2023-08-21T05:30:36;17.50;99.90
25248;DHT22;13191;47.472;11.214;2023-08-21T05:33:03;17.60;99.90
25248;DHT22;13191;47.472;11.214;2023-08-21T05:35:32;17.60;99.90
25248;DHT22;13191;47.472;11.214;2023-08-21T05:37:58;17.60;99.90
25248;DHT22;13191;47.472;11.214;2023-08-21T05:40:23;17.70;99.90
25248;DHT22;13191;47.472;11.214;2023-08-21T05:42:49;17.70;99.90
25248;DHT22;13191;47.472;11.214;2023-08-21T05:45:15;17.70;99.90
25248;DHT22;13191;47.472;11.214;2023-08-21T05:47:40;17.80;99.90
25248;DHT22;13191;47.472;11.214;2023-08-21T05:50:06;17.80;99.90
25248;DHT22;13191;47.472;11.214;2023-08-21T05:52:32;17.90;99.90
25248;DHT22;13191;47.472;11.214;2023-08-21T05:54:57;17.90;99.90
25248;DHT22;13191;47.472;11.214;2023-08-21T05:57:24;17.90;99.90
25248;DHT22;13191;47.472;11.214;2023-08-21T05:59:49;18.00;99.90
25248;DHT22;13191;47.472;11.214;2023-08-21T06:02:15;18.10;99.90
25248;DHT22;13191;47.472;11.214;2023-08-21T06:04:41;18.10;99.90
25248;DHT22;13191;47.472;11.214;2023-08-21T06:07:07;18.10;99.90
25248;DHT22;13191;47.472;11.214;2023-08-21T06:09:33;18.10;99.90
25248;DHT22;13191;47.472;11.214;2023-08-21T06:12:04;18.20;99.90
25248;DHT22;13191;47.472;11.214;2023-08-21T06:14:30;18.30;99.90
25248;DHT22;13191;47.472;11.214;2023-08-21T06:17:00;18.30;99.90
25248;DHT22;13191;47.472;11.214;2023-08-21T06:19:27;18.40;99.90
25248;DHT22;13191;47.472;11.214;2023-08-21T06:21:52;18.40;99.90
25248;DHT22;13191;47.472;11.214;2023-08-21T06:24:18;18.50;99.90
25248;DHT22;13191;47.472;11.214;2023-08-21T06:26:43;18.50;99.90
25248;DHT22;13191;47.472;11.214;2023-08-21T06:29:09;18.60;99.90
25248;DHT22;13191;47.472;11.214;2023-08-21T06:31:34;18.70;99.90
25248;DHT22;13191;47.472;11.214;2023-08-21T06:34:00;18.70;99.90
25248;DHT22;13191;47.472;11.214;2023-08-21T06:36:25;18.80;99.90
25248;DHT22;13191;47.472;11.214;2023-08-21T06:38:51;18.90;99.90
25248;DHT22;13191;47.472;11.214;2023-08-21T06:41:17;19.00;99.90
25248;DHT22;13191;47.472;11.214;2023-08-21T06:43:42;19.10;99.90
25248;DHT22;13191;47.472;11.214;2023-08-21T06:46:08;19.20;99.90
25248;DHT22;13191;47.472;11.214;2023-08-21T06:48:36;19.30;99.90
25248;DHT22;13191;47.472;11.214;2023-08-21T06:51:01;19.40;99.90
25248;DHT22;13191;47.472;11.214;2023-08-21T06:53:28;19.40;99.90
25248;DHT22;13191;47.472;11.214;2023-08-21T06:55:54;19.50;99.90
25248;DHT22;13191;47.472;11.214;2023-08-21T06:58:19;19.60;99.90
25248;DHT22;13191;47.472;11.214;2023-08-21T07:00:45;19.70;99.90
25248;DHT22;13191;47.472;11.214;2023-08-21T07:03:10;19.70;99.90
25248;DHT22;13191;47.472;11.214;2023-08-21T07:05:37;19.90;99.90
25248;DHT22;13191;47.472;11.214;2023-08-21T07:08:03;19.90;99.90
25248;DHT22;13191;47.472;11.214;2023-08-21T07:10:28;20.00;99.90
25248;DHT22;13191;47.472;11.214;2023-08-21T07:12:55;20.10;99.90
25248;DHT22;13191;47.472;11.214;2023-08-21T07:15:20;20.20;99.90
25248;DHT22;13191;47.472;11.214;2023-08-21T07:17:46;20.20;99.90
25248;DHT22;13191;47.472;11.214;2023-08-21T07:20:11;20.30;99.90
25248;DHT22;13191;47.472;11.214;2023-08-21T07:22:37;20.40;99.90
25248;DHT22;13191;47.472;11.214;2023-08-21T07:25:04;20.60;99.90
25248;DHT22;13191;47.472;11.214;2023-08-21T07:27:32;20.60;99.90
25248;DHT22;13191;47.472;11.214;2023-08-21T07:29:59;20.70;99.90
25248;DHT22;13191;47.472;11.214;2023-08-21T07:32:24;20.70;99.90
25248;DHT22;13191;47.472;11.214;2023-08-21T07:34:53;20.80;99.90
25248;DHT22;13191;47.472;11.214;2023-08-21T07:37:20;20.80;99.90
25248;DHT22;13191;47.472;11.214;2023-08-21T07:39:45;21.00;99.90
25248;DHT22;13191;47.472;11.214;2023-08-21T07:42:11;21.00;99.90
25248;DHT22;13191;47.472;11.214;2023-08-21T07:44:39;21.20;99.90
25248;DHT22;13191;47.472;11.214;2023-08-21T07:47:05;21.20;99.90
25248;DHT22;13191;47.472;11.214;2023-08-21T07:49:31;21.30;99.90
25248;DHT22;13191;47.472;11.214;2023-08-21T07:51:57;21.40;99.90
25248;DHT22;13191;47.472;11.214;2023-08-21T07:54:22;21.50;99.90
25248;DHT22;13191;47.472;11.214;2023-08-21T07:56:49;21.60;99.90
25248;DHT22;13191;47.472;11.214;2023-08-21T07:59:15;21.70;99.90
25248;DHT22;13191;47.472;11.214;2023-08-21T08:01:40;21.70;99.90
25248;DHT22;13191;47.472;11.214;2023-08-21T08:04:06;21.80;99.90
25248;DHT22;13191;47.472;11.214;2023-08-21T08:06:32;21.90;99.90
25248;DHT22;13191;47.472;11.214;2023-08-21T08:08:58;22.00;99.90
25248;DHT22;13191;47.472;11.214;2023-08-21T08:11:24;22.10;99.90
25248;DHT22;13191;47.472;11.214;2023-08-21T08:13:49;22.20;99.90
25248;DHT22;13191;47.472;11.214;2023-08-21T08:16:15;22.20;99.90
25248;DHT22;13191;47.472;11.214;2023-08-21T08:18:42;22.30;99.90
25248;DHT22;13191;47.472;11.214;2023-08-21T08:21:07;22.40;99.90
25248;DHT22;13191;47.472;11.214;2023-08-21T08:23:34;22.50;99.90
25248;DHT22;13191;47.472;11.214;2023-08-21T08:25:59;22.60;99.90
25248;DHT22;13191;47.472;11.214;2023-08-21T08:28:25;22.70;99.90
25248;DHT22;13191;47.472;11.214;2023-08-21T08:30:51;22.80;99.90
25248;DHT22;13191;47.472;11.214;2023-08-21T08:33:16;22.80;99.90
25248;DHT22;13191;47.472;11.214;2023-08-21T08:35:43;22.90;99.90
25248;DHT22;13191;47.472;11.214;2023-08-21T08:38:09;23.00;99.90
25248;DHT22;13191;47.472;11.214;2023-08-21T08:40:41;23.10;99.90
25248;DHT22;13191;47.472;11.214;2023-08-21T08:43:08;23.20;99.90
25248;DHT22;13191;47.472;11.214;2023-08-21T08:45:34;23.20;99.90
25248;DHT22;13191;47.472;11.214;2023-08-21T08:48:01;23.40;99.90
25248;DHT22;13191;47.472;11.214;2023-08-21T08:50:31;23.50;99.90
25248;DHT22;13191;47.472;11.214;2023-08-21T08:52:58;23.50;99.90
25248;DHT22;13191;47.472;11.214;2023-08-21T08:55:24;23.60;99.90
25248;DHT22;13191;47.472;11.214;2023-08-21T08:57:51;23.70;99.90
25248;DHT22;13191;47.472;11.214;2023-08-21T09:00:16;23.80;99.90
25248;DHT22;13191;47.472;11.214;2023-08-21T09:02:42;23.80;99.90
25248;DHT22;13191;47.472;11.214;2023-08-21T09:05:08;23.90;99.90
25248;DHT22;13191;47.472;11.214;2023-08-21T09:07:34;24.00;99.90
25248;DHT22;13191;47.472;11.214;2023-08-21T09:10:00;24.10;99.90
25248;DHT22;13191;47.472;11.214;2023-08-21T09:12:26;24.20;99.90
25248;DHT22;13191;47.472;11.214;2023-08-21T09:14:52;24.20;99.90
25248;DHT22;13191;47.472;11.214;2023-08-21T09:17:17;24.30;99.90
25248;DHT22;13191;47.472;11.214;2023-08-21T09:19:43;24.40;99.90
25248;DHT22;13191;47.472;11.214;2023-08-21T09:22:16;24.50;99.90
25248;DHT22;13191;47.472;11.214;2023-08-21T09:25:07;24.50;99.90
25248;DHT22;13191;47.472;11.214;2023-08-21T09:27:39;24.60;99.90
25248;DHT22;13191;47.472;11.214;2023-08-21T09:30:06;24.70;99.90
25248;DHT22;13191;47.472;11.214;2023-08-21T09:33:01;24.70;99.90
25248;DHT22;13191;47.472;11.214;2023-08-21T09:35:32;24.80;99.90
25248;DHT22;13191;47.472;11.214;2023-08-21T09:37:59;24.90;99.90
25248;DHT22;13191;47.472;11.214;2023-08-21T09:40:24;25.00;99.90
25248;DHT22;13191;47.472;11.214;2023-08-21T09:42:55;25.00;99.90
25248;DHT22;13191;47.472;11.214;2023-08-21T09:45:25;25.10;99.90
25248;DHT22;13191;47.472;11.214;2023-08-21T09:47:51;25.20;99.90
25248;DHT22;13191;47.472;11.214;2023-08-21T09:50:18;25.20;99.90
25248;DHT22;13191;47.472;11.214;2023-08-21T09:52:45;25.30;99.90
25248;DHT22;13191;47.472;11.214;2023-08-21T09:55:15;25.30;99.90
25248;DHT22;13191;47.472;11.214;2023-08-21T09:57:41;25.50;99.90
25248;DHT22;13191;47.472;11.214;2023-08-21T10:00:08;25.50;99.90
25248;DHT22;13191;47.472;11.214;2023-08-21T10:02:42;25.60;99.90
25248;DHT22;13191;47.472;11.214;2023-08-21T10:05:12;25.70;99.90
25248;DHT22;13191;47.472;11.214;2023-08-21T10:07:38;25.80;99.90
25248;DHT22;13191;47.472;11.214;2023-08-21T10:10:05;25.90;99.90
25248;DHT22;13191;47.472;11.214;2023-08-21T10:12:31;25.90;99.90
25248;DHT22;13191;47.472;11.214;2023-08-21T10:14:57;26.00;99.90
25248;DHT22;13191;47.472;11.214;2023-08-21T10:17:23;26.10;99.90
25248;DHT22;13191;47.472;11.214;2023-08-21T10:19:52;26.10;99.90
25248;DHT22;13191;47.472;11.214;2023-08-21T10:22:48;26.20;99.90
25248;DHT22;13191;47.472;11.214;2023-08-21T10:25:19;26.30;99.90
25248;DHT22;13191;47.472;11.214;2023-08-21T10:27:56;26.40;99.90
25248;DHT22;13191;47.472;11.214;2023-08-21T10:30:26;26.40;99.90
25248;DHT22;13191;47.472;11.214;2023-08-21T10:32:57;26.50;99.90
25248;DHT22;13191;47.472;11.214;2023-08-21T10:35:25;26.50;99.90
25248;DHT22;13191;47.472;11.214;2023-08-21T10:38:12;26.60;99.90
25248;DHT22;13191;47.472;11.214;2023-08-21T10:40:39;26.70;99.90
25248;DHT22;13191;47.472;11.214;2023-08-21T10:43:46;26.70;99.90
25248;DHT22;13191;47.472;11.214;2023-08-21T10:46:12;26.80;99.90
25248;DHT22;13191;47.472;11.214;2023-08-21T10:48:38;26.90;99.90
25248;DHT22;13191;47.472;11.214;2023-08-21T10:51:06;27.00;99.90
25248;DHT22;13191;47.472;11.214;2023-08-21T10:53:32;27.00;99.90
25248;DHT22;13191;47.472;11.214;2023-08-21T10:56:03;27.10;99.90
25248;DHT22;13191;47.472;11.214;2023-08-21T10:58:34;27.10;99.90
25248;DHT22;13191;47.472;11.214;2023-08-21T11:00:59;27.10;99.90
25248;DHT22;13191;47.472;11.214;2023-08-21T11:03:25;27.10;99.90
25248;DHT22;13191;47.472;11.214;2023-08-21T11:06:20;27.10;99.90
25248;DHT22;13191;47.472;11.214;2023-08-21T11:08:46;27.30;99.90
25248;DHT22;13191;47.472;11.214;2023-08-21T11:11:12;27.20;99.90
25248;DHT22;13191;47.472;11.214;2023-08-21T11:13:37;27.20;99.90
25248;DHT22;13191;47.472;11.214;2023-08-21T11:16:04;27.30;99.90
25248;DHT22;13191;47.472;11.214;2023-08-21T11:18:39;27.40;99.90
25248;DHT22;13191;47.472;11.214;2023-08-21T11:21:06;27.50;99.90
25248;DHT22;13191;47.472;11.214;2023-08-21T11:23:33;27.40;99.90
25248;DHT22;13191;47.472;11.214;2023-08-21T11:25:59;27.40;99.90
25248;DHT22;13191;47.472;11.214;2023-08-21T11:28:25;27.50;99.90
25248;DHT22;13191;47.472;11.214;2023-08-21T11:30:50;27.50;99.90
25248;DHT22;13191;47.472;11.214;2023-08-21T11:33:16;27.60;99.90
25248;DHT22;13191;47.472;11.214;2023-08-21T11:35:41;27.70;99.90
25248;DHT22;13191;47.472;11.214;2023-08-21T11:38:18;27.80;99.90
25248;DHT22;13191;47.472;11.214;2023-08-21T11:40:58;27.90;99.90
25248;DHT22;13191;47.472;11.214;2023-08-21T11:43:35;28.00;99.90
25248;DHT22;13191;47.472;11.214;2023-08-21T11:46:05;28.10;99.90
25248;DHT22;13191;47.472;11.214;2023-08-21T11:48:31;28.10;99.90
25248;DHT22;13191;47.472;11.214;2023-08-21T11:50:57;28.10;99.90
25248;DHT22;13191;47.472;11.214;2023-08-21T11:53:35;28.20;99.90
25248;DHT22;13191;47.472;11.214;2023-08-21T11:56:02;28.20;99.90
25248;DHT22;13191;47.472;11.214;2023-08-21T11:58:27;28.30;99.90
25248;DHT22;13191;47.472;11.214;2023-08-21T12:00:54;28.30;99.90
25248;DHT22;13191;47.472;11.214;2023-08-21T12:03:19;28.30;99.90
25248;DHT22;13191;47.472;11.214;2023-08-21T12:05:45;28.30;99.90
25248;DHT22;13191;47.472;11.214;2023-08-21T12:08:11;28.30;99.90
25248;DHT22;13191;47.472;11.214;2023-08-21T12:10:37;28.30;99.90
25248;DHT22;13191;47.472;11.214;2023-08-21T12:13:02;28.50;99.90
25248;DHT22;13191;47.472;11.214;2023-08-21T12:15:28;28.50;99.90
25248;DHT22;13191;47.472;11.214;2023-08-21T12:17:53;28.60;99.90
25248;DHT22;13191;47.472;11.214;2023-08-21T12:20:19;28.60;99.90
25248;DHT22;13191;47.472;11.214;2023-08-21T12:22:45;28.70;99.90
25248;DHT22;13191;47.472;11.214;2023-08-21T12:25:11;28.70;99.90
25248;DHT22;13191;47.472;11.214;2023-08-21T12:27:38;28.80;99.90
25248;DHT22;13191;47.472;11.214;2023-08-21T12:30:05;28.90;99.90
25248;DHT22;13191;47.472;11.214;2023-08-21T12:32:30;29.00;99.90
25248;DHT22;13191;47.472;11.214;2023-08-21T12:34:56;29.10;99.90
25248;DHT22;13191;47.472;11.214;2023-08-21T12:37:22;29.20;99.90
25248;DHT22;13191;47.472;11.214;2023-08-21T12:39:47;29.20;99.90
25248;DHT22;13191;47.472;11.214;2023-08-21T12:42:13;29.30;99.90
25248;DHT22;13191;47.472;11.214;2023-08-21T12:44:38;29.40;99.90
25248;DHT22;13191;47.472;11.214;2023-08-21T12:47:04;29.50;99.90
25248;DHT22;13191;47.472;11.214;2023-08-21T12:49:30;29.60;99.90
25248;DHT22;13191;47.472;11.214;2023-08-21T12:51:55;29.70;99.90
25248;DHT22;13191;47.472;11.214;2023-08-21T12:54:21;29.80;99.90
25248;DHT22;13191;47.472;11.214;2023-08-21T12:56:46;29.90;99.90
25248;DHT22;13191;47.472;11.214;2023-08-21T12:59:13;29.90;99.90
25248;DHT22;13191;47.472;11.214;2023-08-21T13:01:39;30.00;99.90
25248;DHT22;13191;47.472;11.214;2023-08-21T13:04:04;30.10;99.90
25248;DHT22;13191;47.472;11.214;2023-08-21T13:06:30;30.10;99.90
25248;DHT22;13191;47.472;11.214;2023-08-21T13:08:56;30.30;99.90
25248;DHT22;13191;47.472;11.214;2023-08-21T13:11:21;30.30;99.90
25248;DHT22;13191;47.472;11.214;2023-08-21T13:13:47;30.40;99.90
25248;DHT22;13191;47.472;11.214;2023-08-21T13:16:13;30.40;99.90
25248;DHT22;13191;47.472;11.214;2023-08-21T13:18:39;30.50;99.90
25248;DHT22;13191;47.472;11.214;2023-08-21T13:21:05;30.40;99.90
25248;DHT22;13191;47.472;11.214;2023-08-21T13:23:30;30.50;99.90
25248;DHT22;13191;47.472;11.214;2023-08-21T13:25:57;30.60;99.90
25248;DHT22;13191;47.472;11.214;2023-08-21T13:28:23;30.60;99.90
25248;DHT22;13191;47.472;11.214;2023-08-21T13:30:49;30.70;99.90
25248;DHT22;13191;47.472;11.214;2023-08-21T13:33:15;30.70;99.90
25248;DHT22;13191;47.472;11.214;2023-08-21T13:35:44;30.80;99.90
25248;DHT22;13191;47.472;11.214;2023-08-21T13:38:10;30.90;99.90
25248;DHT22;13191;47.472;11.214;2023-08-21T13:40:35;31.00;99.90
25248;DHT22;13191;47.472;11.214;2023-08-21T13:43:01;31.00;99.90
25248;DHT22;13191;47.472;11.214;2023-08-21T13:45:26;31.00;99.90
25248;DHT22;13191;47.472;11.214;2023-08-21T13:47:52;31.10;99.90
25248;DHT22;13191;47.472;11.214;2023-08-21T13:50:19;31.10;99.90
25248;DHT22;13191;47.472;11.214;2023-08-21T13:52:46;31.20;99.90
25248;DHT22;13191;47.472;11.214;2023-08-21T13:55:13;31.20;99.90
25248;DHT22;13191;47.472;11.214;2023-08-21T13:57:39;31.20;99.90
25248;DHT22;13191;47.472;11.214;2023-08-21T14:00:07;31.30;99.90
25248;DHT22;13191;47.472;11.214;2023-08-21T14:02:36;31.30;99.90
25248;DHT22;13191;47.472;11.214;2023-08-21T14:05:05;31.30;99.90
25248;DHT22;13191;47.472;11.214;2023-08-21T14:07:31;31.30;99.90
25248;DHT22;13191;47.472;11.214;2023-08-21T14:09:57;31.40;99.90
25248;DHT22;13191;47.472;11.214;2023-08-21T14:12:23;31.40;99.90
25248;DHT22;13191;47.472;11.214;2023-08-21T14:14:48;31.40;99.90
25248;DHT22;13191;47.472;11.214;2023-08-21T14:17:14;31.40;99.90
25248;DHT22;13191;47.472;11.214;2023-08-21T14:19:40;31.50;99.90
25248;DHT22;13191;47.472;11.214;2023-08-21T14:22:06;31.40;99.90
25248;DHT22;13191;47.472;11.214;2023-08-21T14:24:32;31.40;99.90
25248;DHT22;13191;47.472;11.214;2023-08-21T14:26:58;31.40;99.90
25248;DHT22;13191;47.472;11.214;2023-08-21T14:29:23;31.40;99.90
25248;DHT22;13191;47.472;11.214;2023-08-21T14:31:49;31.40;99.90
25248;DHT22;13191;47.472;11.214;2023-08-21T14:34:18;31.50;99.90
25248;DHT22;13191;47.472;11.214;2023-08-21T14:36:44;31.60;99.90
25248;DHT22;13191;47.472;11.214;2023-08-21T14:39:10;31.60;99.90
25248;DHT22;13191;47.472;11.214;2023-08-21T14:41:37;31.70;99.90
25248;DHT22;13191;47.472;11.214;2023-08-21T14:44:04;31.70;99.90
25248;DHT22;13191;47.472;11.214;2023-08-21T14:46:31;31.70;99.90
25248;DHT22;13191;47.472;11.214;2023-08-21T14:48:56;31.70;99.90
25248;DHT22;13191;47.472;11.214;2023-08-21T14:51:22;31.80;99.90
25248;DHT22;13191;47.472;11.214;2023-08-21T14:53:47;31.80;99.90
25248;DHT22;13191;47.472;11.214;2023-08-21T14:56:13;31.90;99.90
25248;DHT22;13191;47.472;11.214;2023-08-21T14:58:38;31.90;99.90
25248;DHT22;13191;47.472;11.214;2023-08-21T15:01:04;32.00;99.90
25248;DHT22;13191;47.472;11.214;2023-08-21T15:03:30;32.00;99.90
25248;DHT22;13191;47.472;11.214;2023-08-21T15:05:55;32.00;99.90
25248;DHT22;13191;47.472;11.214;2023-08-21T15:08:21;32.00;99.90
25248;DHT22;13191;47.472;11.214;2023-08-21T15:10:46;32.10;99.90
25248;DHT22;13191;47.472;11.214;2023-08-21T15:13:12;32.10;99.90